createdAt,value
2022-11-26T00:02:00.596Z,99032.59
2022-11-26T00:04:28.365Z,99034.72
2022-11-26T00:06:56.092Z,99041.84
2022-11-26T00:09:26.092Z,99036.84
2022-11-26T00:11:53.745Z,99043.75
2022-11-26T00:14:22.864Z,99044.91
2022-11-26T00:16:50.628Z,99050.81
2022-11-26T00:19:18.271Z,99044.91
2022-11-26T00:21:46.033Z,99049.19
2022-11-26T00:24:26.372Z,99045.59
2022-11-26T00:26:54.871Z,99051.81
2022-11-26T00:29:23.984Z,99049.03
2022-11-26T00:31:51.744Z,99058.25
2022-11-26T00:34:19.519Z,99057.66
2022-11-26T00:36:48.315Z,99061.47
2022-11-26T00:39:19.162Z,99063.09
2022-11-26T00:41:50.891Z,99062.50
2022-11-26T00:44:21.741Z,99065.72
2022-11-26T00:46:51.576Z,99072.72
2022-11-26T00:49:20.803Z,99068.44
2022-11-26T00:51:48.884Z,99069.72
2022-11-26T00:54:19.576Z,99058.97
2022-11-26T00:56:48.939Z,99066.31
2022-11-26T00:59:21.159Z,99073.53
2022-11-26T01:01:50.847Z,99080.78
2022-11-26T01:04:18.524Z,99079.78
2022-11-26T01:06:46.736Z,99091.06
2022-11-26T01:09:18.523Z,99092.44
2022-11-26T01:11:49.749Z,99097.06
2022-11-26T01:14:21.757Z,99102.50
2022-11-26T01:16:58.223Z,99099.28
2022-11-26T01:19:25.932Z,99111.16
2022-11-26T01:21:53.689Z,99113.94
2022-11-26T01:24:21.366Z,99111.16
2022-11-26T01:26:49.106Z,99120.41
2022-11-26T01:29:18.016Z,99118.72
2022-11-26T01:31:46.511Z,99117.69
2022-11-26T01:34:15.731Z,99122.59
2022-11-26T01:36:43.503Z,99128.63
2022-11-26T01:39:16.445Z,99132.44
2022-11-26T01:41:46.576Z,99125.44
2022-11-26T01:44:20.171Z,99122.38
2022-11-26T01:46:49.462Z,99136.75
2022-11-26T01:49:22.346Z,99134.06
2022-11-26T01:51:54.610Z,99133.88
2022-11-26T01:54:22.716Z,99142.50
2022-11-26T01:56:53.136Z,99145.41
2022-11-26T01:59:24.578Z,99147.31
2022-11-26T02:01:53.472Z,99149.84
2022-11-26T02:04:27.627Z,99145.81
2022-11-26T02:06:57.454Z,99161.19
2022-11-26T02:09:27.124Z,99159.59
2022-11-26T02:11:55.446Z,99164.94
2022-11-26T02:14:26.653Z,99167.66
2022-11-26T02:17:13.402Z,99164.63
2022-11-26T02:20:17.758Z,99164.34
2022-11-26T02:23:13.915Z,99168.66
2022-11-26T02:26:13.869Z,99168.66
2022-11-26T02:29:04.150Z,99177.13
2022-11-26T02:31:40.133Z,99173.81
2022-11-26T02:34:15.372Z,99179.25
2022-11-26T02:36:51.022Z,99180.88
2022-11-26T02:39:21.384Z,99181.69
2022-11-26T02:41:51.727Z,99185.19
2022-11-26T02:44:23.154Z,99188.22
2022-11-26T02:46:56.037Z,99181.16
2022-11-26T02:49:24.139Z,99185.19
2022-11-26T02:51:55.681Z,99189.59
2022-11-26T02:54:25.644Z,99191.81
2022-11-26T02:56:54.418Z,99185.56
2022-11-26T02:59:22.524Z,99189.69
2022-11-26T03:01:58.590Z,99192.41
2022-11-26T03:04:34.494Z,99189.38
2022-11-26T03:07:07.235Z,99196.84
2022-11-26T03:09:42.923Z,99196.03
2022-11-26T03:12:10.708Z,99193.41
2022-11-26T03:14:38.742Z,99191.81
2022-11-26T03:17:08.023Z,99200.06
2022-11-26T03:19:35.905Z,99194.63
2022-11-26T03:22:03.810Z,99192.00
2022-11-26T03:24:32.085Z,99189.28
2022-11-26T03:26:59.960Z,99192.00
2022-11-26T03:29:27.911Z,99197.78
2022-11-26T03:31:56.107Z,99202.00
2022-11-26T03:34:25.363Z,99202.59
2022-11-26T03:36:53.518Z,99215.06
2022-11-26T03:39:21.328Z,99218.28
2022-11-26T03:41:49.166Z,99223.91
2022-11-26T03:44:17.015Z,99224.13
2022-11-26T03:46:44.788Z,99223.31
2022-11-26T03:49:12.429Z,99226.34
2022-11-26T03:51:41.484Z,99228.56
2022-11-26T03:54:09.282Z,99232.50
2022-11-26T03:56:37.000Z,99235.22
2022-11-26T03:59:05.049Z,99238.53
2022-11-26T04:01:32.880Z,99248.38
2022-11-26T04:04:00.613Z,99249.97
2022-11-26T04:06:28.311Z,99241.75
2022-11-26T04:08:57.579Z,99246.59
2022-11-26T04:11:25.298Z,99251.84
2022-11-26T04:13:53.010Z,99257.28
2022-11-26T04:16:21.389Z,99262.13
2022-11-26T04:18:49.294Z,99257.28
2022-11-26T04:21:17.076Z,99262.34
2022-11-26T04:23:44.985Z,99264.78
2022-11-26T04:26:14.032Z,99266.97
2022-11-26T04:28:41.785Z,99271.88
2022-11-26T04:31:09.451Z,99275.91
2022-11-26T04:33:37.428Z,99282.84
2022-11-26T04:36:05.715Z,99273.09
2022-11-26T04:38:33.443Z,99288.84
2022-11-26T04:41:01.080Z,99288.25
2022-11-26T04:43:30.091Z,99282.91
2022-11-26T04:45:57.856Z,99283.41
2022-11-26T04:48:25.560Z,99279.59
2022-11-26T04:50:54.545Z,99285.03
2022-11-26T04:53:22.724Z,99284.00
2022-11-26T04:55:51.582Z,99286.19
2022-11-26T04:58:20.186Z,99298.00
2022-11-26T05:00:51.330Z,99304.31
2022-11-26T05:03:19.385Z,99301.75
2022-11-26T05:05:47.769Z,99297.28
2022-11-26T05:08:16.053Z,99305.56
2022-11-26T05:10:43.688Z,99305.56
2022-11-26T05:13:11.673Z,99315.81
2022-11-26T05:15:39.545Z,99319.66
2022-11-26T05:18:08.542Z,99314.78
2022-11-26T05:20:36.198Z,99316.19
2022-11-26T05:23:03.853Z,99317.59
2022-11-26T05:25:31.515Z,99327.84
2022-11-26T05:27:59.155Z,99336.91
2022-11-26T05:30:26.907Z,99333.66
2022-11-26T05:32:54.499Z,99342.66
2022-11-26T05:35:23.785Z,99337.81
2022-11-26T05:37:51.477Z,99345.91
2022-11-26T05:40:19.342Z,99346.84
2022-11-26T05:42:47.038Z,99340.31
2022-11-26T05:45:15.747Z,99344.13
2022-11-26T05:47:43.482Z,99345.91
2022-11-26T05:50:11.886Z,99347.53
2022-11-26T05:52:40.888Z,99347.53
2022-11-26T05:55:10.174Z,99355.13
2022-11-26T05:57:38.428Z,99351.47
2022-11-26T06:00:07.833Z,99341.78
2022-11-26T06:02:35.547Z,99353.22
2022-11-26T06:05:03.703Z,99349.97
2022-11-26T06:07:31.463Z,99358.16
2022-11-26T06:10:00.533Z,99365.81
2022-11-26T06:12:28.515Z,99368.72
2022-11-26T06:14:56.141Z,99367.94
2022-11-26T06:17:23.885Z,99374.69
2022-11-26T06:19:52.352Z,99370.59
2022-11-26T06:22:22.955Z,99374.63
2022-11-26T06:24:50.636Z,99377.56
2022-11-26T06:27:19.741Z,99374.91
2022-11-26T06:29:47.535Z,99376.75
2022-11-26T06:32:15.138Z,99380.19
2022-11-26T06:34:44.182Z,99382.84
2022-11-26T06:37:12.453Z,99389.91
2022-11-26T06:39:40.074Z,99388.28
2022-11-26T06:42:07.772Z,99392.91
2022-11-26T06:44:37.901Z,99395.03
2022-11-26T06:47:05.929Z,99396.38
2022-11-26T06:49:33.690Z,99403.84
2022-11-26T06:52:01.321Z,99411.50
2022-11-26T06:54:29.123Z,99407.69
2022-11-26T06:56:56.762Z,99411.25
2022-11-26T06:59:24.494Z,99414.25
2022-11-26T07:01:53.666Z,99412.59
2022-11-26T07:04:21.459Z,99417.41
2022-11-26T07:06:49.546Z,99421.16
2022-11-26T07:09:17.302Z,99421.63
2022-11-26T07:11:45.011Z,99434.09
2022-11-26T07:14:12.719Z,99428.69
2022-11-26T07:16:40.488Z,99436.72
2022-11-26T07:19:14.085Z,99427.50
2022-11-26T07:21:41.868Z,99426.91
2022-11-26T07:24:09.712Z,99422.88
2022-11-26T07:26:37.470Z,99424.34
2022-11-26T07:29:05.442Z,99432.50
2022-11-26T07:31:33.135Z,99432.50
2022-11-26T07:34:00.780Z,99435.72
2022-11-26T07:36:31.192Z,99436.53
2022-11-26T07:39:01.667Z,99441.44
2022-11-26T07:41:30.622Z,99443.94
2022-11-26T07:43:58.250Z,99446.69
2022-11-26T07:46:27.598Z,99446.13
2022-11-26T07:48:57.287Z,99450.44
2022-11-26T07:51:26.650Z,99447.16
2022-11-26T07:53:56.502Z,99449.81
2022-11-26T07:56:24.204Z,99460.69
2022-11-26T07:58:51.910Z,99460.06
2022-11-26T08:01:21.551Z,99464.16
2022-11-26T08:03:51.760Z,99464.59
2022-11-26T08:06:21.515Z,99479.94
2022-11-26T08:08:49.813Z,99470.50
2022-11-26T08:11:20.698Z,99480.50
2022-11-26T08:13:49.299Z,99486.53
2022-11-26T08:16:17.442Z,99483.31
2022-11-26T08:18:45.219Z,99492.13
2022-11-26T08:21:12.846Z,99494.78
2022-11-26T08:23:41.035Z,99494.78
2022-11-26T08:26:33.028Z,99501.38
2022-11-26T08:29:00.052Z,99503.06
2022-11-26T08:31:28.729Z,99503.00
2022-11-26T08:33:58.131Z,99502.63
2022-11-26T08:36:26.094Z,99511.66
2022-11-26T08:38:53.755Z,99511.59
2022-11-26T08:41:21.575Z,99513.34
2022-11-26T08:44:07.222Z,99518.72
2022-11-26T08:46:37.343Z,99519.88
2022-11-26T08:49:05.568Z,99526.41
2022-11-26T08:51:33.227Z,99535.59
2022-11-26T08:54:00.896Z,99529.56
2022-11-26T08:56:28.604Z,99536.16
2022-11-26T08:58:56.344Z,99540.50
2022-11-26T09:01:26.248Z,99541.31
2022-11-26T09:03:57.677Z,99542.06
2022-11-26T09:06:27.019Z,99547.13
2022-11-26T09:09:12.708Z,99547.50
2022-11-26T09:11:42.826Z,99554.03
2022-11-26T09:14:11.700Z,99545.31
2022-11-26T09:16:40.088Z,99551.16
2022-11-26T09:19:09.456Z,99549.53
2022-11-26T09:21:37.610Z,99552.56
2022-11-26T09:24:05.901Z,99551.41
2022-11-26T09:26:34.266Z,99555.78
2022-11-26T09:29:02.563Z,99558.22
2022-11-26T09:31:30.934Z,99564.69
2022-11-26T09:33:59.990Z,99571.16
2022-11-26T09:36:29.199Z,99571.59
2022-11-26T09:38:57.819Z,99568.34
2022-11-26T09:41:39.137Z,99567.19
2022-11-26T09:44:21.000Z,99572.97
2022-11-26T09:47:11.589Z,99560.53
2022-11-26T09:49:50.023Z,99565.56
2022-11-26T09:52:22.149Z,99564.03
2022-11-26T09:54:55.405Z,99560.56
2022-11-26T09:57:30.736Z,99558.28
2022-11-26T09:59:58.391Z,99560.09
2022-11-26T10:02:26.815Z,99560.03
2022-11-26T10:04:54.868Z,99559.59
2022-11-26T10:07:47.990Z,99561.13
2022-11-26T10:10:20.177Z,99562.19
2022-11-26T10:13:17.863Z,99560.56
2022-11-26T10:15:56.533Z,99558.88
2022-11-26T10:18:35.350Z,99568.66
2022-11-26T10:21:16.608Z,99569.53
2022-11-26T10:23:53.472Z,99567.47
2022-11-26T10:26:26.626Z,99571.22
2022-11-26T10:29:05.656Z,99576.72
2022-11-26T10:31:34.597Z,99573.63
2022-11-26T10:34:05.890Z,99573.63
2022-11-26T10:36:36.941Z,99565.47
2022-11-26T10:39:07.490Z,99570.69
2022-11-26T10:41:37.949Z,99573.06
2022-11-26T10:44:31.871Z,99578.81
2022-11-26T10:47:00.254Z,99572.03
2022-11-26T10:49:29.683Z,99571.41
2022-11-26T10:51:59.776Z,99564.78
2022-11-26T10:54:33.310Z,99570.13
2022-11-26T10:57:05.708Z,99572.69
2022-11-26T10:59:40.577Z,99571.09
2022-11-26T11:02:27.401Z,99561.91
2022-11-26T11:04:57.916Z,99570.94
2022-11-26T11:07:30.682Z,99560.72
2022-11-26T11:10:06.380Z,99564.78
2022-11-26T11:12:35.488Z,99561.53
2022-11-26T11:15:23.068Z,99564.91
2022-11-26T11:17:57.816Z,99561.75
2022-11-26T11:20:32.068Z,99563.22
2022-11-26T11:23:06.582Z,99560.28
2022-11-26T11:25:37.201Z,99561.59
2022-11-26T11:28:12.274Z,99559.41
2022-11-26T11:30:42.978Z,99566.31
2022-11-26T11:33:17.336Z,99566.53
2022-11-26T11:35:45.283Z,99574.47
2022-11-26T11:38:24.570Z,99567.25
2022-11-26T11:40:54.211Z,99566.97
2022-11-26T11:43:24.131Z,99568.00
2022-11-26T11:46:02.387Z,99568.81
2022-11-26T11:48:43.432Z,99565.34
2022-11-26T11:51:25.105Z,99570.44
2022-11-26T11:54:03.272Z,99561.75
2022-11-26T11:56:39.678Z,99565.34
2022-11-26T12:00:10.764Z,99567.78
2022-11-26T12:03:01.116Z,99564.19
2022-11-26T12:05:57.106Z,99573.72
2022-11-26T12:08:34.332Z,99558.00
2022-11-26T12:11:20.355Z,99564.53
2022-11-26T12:13:54.282Z,99565.00
2022-11-26T12:16:26.075Z,99564.41
2022-11-26T12:19:00.486Z,99562.78
2022-11-26T12:21:35.963Z,99568.16
2022-11-26T12:24:09.001Z,99567.94
2022-11-26T12:26:41.368Z,99567.34
2022-11-26T12:29:17.336Z,99573.72
2022-11-26T12:31:49.740Z,99567.94
2022-11-26T12:34:26.741Z,99565.72
2022-11-26T12:36:59.484Z,99560.22
2022-11-26T12:39:39.252Z,99565.44
2022-11-26T12:42:14.112Z,99568.97
2022-11-26T12:44:46.250Z,99563.53
2022-11-26T12:47:23.293Z,99564.53
2022-11-26T12:50:03.464Z,99565.63
2022-11-26T12:52:39.608Z,99568.22
2022-11-26T12:55:18.123Z,99570.88
2022-11-26T12:57:52.965Z,99556.53
2022-11-26T13:00:30.137Z,99557.56
2022-11-26T13:03:00.629Z,99557.47
2022-11-26T13:05:34.122Z,99553.06
2022-11-26T13:08:26.307Z,99560.94
2022-11-26T13:11:10.437Z,99562.09
2022-11-26T13:13:46.676Z,99559.69
2022-11-26T13:16:24.872Z,99556.03
2022-11-26T13:18:56.692Z,99558.81
2022-11-26T13:21:42.585Z,99552.22
2022-11-26T13:24:26.474Z,99551.69
2022-11-26T13:27:26.651Z,99551.63
2022-11-26T13:30:14.817Z,99550.13
2022-11-26T13:33:06.541Z,99546.91
2022-11-26T13:35:57.077Z,99556.97
2022-11-26T13:38:34.308Z,99555.06
2022-11-26T13:41:28.813Z,99559.56
2022-11-26T13:44:20.348Z,99556.31
2022-11-26T13:46:50.892Z,99553.91
2022-11-26T13:49:25.047Z,99552.28
2022-11-26T13:51:57.857Z,99552.72
2022-11-26T13:54:29.648Z,99552.16
2022-11-26T13:57:02.493Z,99549.72
2022-11-26T13:59:31.585Z,99554.56
2022-11-26T14:01:59.652Z,99557.78
2022-11-26T14:04:54.911Z,99556.19
2022-11-26T14:07:22.822Z,99564.41
2022-11-26T14:09:54.235Z,99558.47
2022-11-26T14:12:23.424Z,99555.16
2022-11-26T14:14:52.283Z,99564.53
2022-11-26T14:17:25.420Z,99566.44
2022-11-26T14:20:09.098Z,99563.38
2022-11-26T14:22:38.057Z,99565.00
2022-11-26T14:25:09.277Z,99566.97
2022-11-26T14:27:40.555Z,99565.22
2022-11-26T14:30:24.240Z,99567.19
2022-11-26T14:33:06.393Z,99563.66
2022-11-26T14:35:37.362Z,99570.28
2022-11-26T14:38:07.315Z,99574.09
2022-11-26T14:40:36.584Z,99584.00
2022-11-26T14:43:09.096Z,99582.91
2022-11-26T14:45:37.338Z,99586.44
2022-11-26T14:48:06.429Z,99585.97
2022-11-26T14:50:37.797Z,99587.16
2022-11-26T14:53:08.315Z,99591.56
2022-11-26T14:55:36.157Z,99587.97
2022-11-26T14:58:09.562Z,99588.06
2022-11-26T15:00:38.006Z,99589.06
2022-11-26T15:03:21.071Z,99584.69
2022-11-26T15:05:50.246Z,99585.91
2022-11-26T15:08:20.273Z,99582.53
2022-11-26T15:10:52.988Z,99590.06
2022-11-26T15:13:27.282Z,99599.31
2022-11-26T15:15:56.587Z,99598.25
2022-11-26T15:18:31.014Z,99607.50
2022-11-26T15:21:02.406Z,99598.41
2022-11-26T15:23:32.962Z,99606.22
2022-11-26T15:26:01.255Z,99609.53
2022-11-26T15:28:29.898Z,99602.78
2022-11-26T15:30:59.732Z,99603.59
2022-11-26T15:33:29.242Z,99601.78
2022-11-26T15:35:57.897Z,99601.72
2022-11-26T15:38:28.595Z,99599.06
2022-11-26T15:40:59.166Z,99599.53
2022-11-26T15:43:32.178Z,99605.06
2022-11-26T15:46:03.853Z,99591.00
2022-11-26T15:48:54.006Z,99595.91
2022-11-26T15:51:30.703Z,99594.19
2022-11-26T15:54:04.131Z,99592.94
2022-11-26T15:56:35.484Z,99597.06
2022-11-26T15:59:06.900Z,99599.78
2022-11-26T16:01:37.487Z,99606.28
2022-11-26T16:04:06.498Z,99610.03
2022-11-26T16:06:36.170Z,99605.13
2022-11-26T16:09:08.360Z,99606.69
2022-11-26T16:11:37.336Z,99604.50
2022-11-26T16:14:33.808Z,99609.91
2022-11-26T16:17:08.340Z,99609.91
2022-11-26T16:19:37.765Z,99606.47
2022-11-26T16:22:07.367Z,99603.47
2022-11-26T16:24:39.125Z,99610.50
2022-11-26T16:27:24.724Z,99608.59
2022-11-26T16:29:52.460Z,99608.91
2022-11-26T16:32:20.750Z,99601.84
2022-11-26T16:34:48.442Z,99609.69
2022-11-26T16:37:21.091Z,99604.78
2022-11-26T16:39:51.477Z,99607.84
2022-11-26T16:42:20.950Z,99600.06
2022-11-26T16:44:49.617Z,99607.94
2022-11-26T16:47:22.758Z,99604.47
2022-11-26T16:49:50.486Z,99597.72
2022-11-26T16:52:20.141Z,99597.69
2022-11-26T16:54:48.353Z,99598.78
2022-11-26T16:57:19.808Z,99600.84
2022-11-26T16:59:51.099Z,99601.66
2022-11-26T17:02:20.031Z,99597.28
2022-11-26T17:04:48.486Z,99600.22
2022-11-26T17:07:20.356Z,99598.03
2022-11-26T17:09:48.504Z,99594.84
2022-11-26T17:12:20.334Z,99600.50
2022-11-26T17:14:48.628Z,99597.06
2022-11-26T17:17:23.608Z,99606.22
2022-11-26T17:19:52.778Z,99606.22
2022-11-26T17:22:20.642Z,99600.22
2022-11-26T17:24:48.343Z,99590.69
2022-11-26T17:27:19.544Z,99594.72
2022-11-26T17:29:48.287Z,99599.63
2022-11-26T17:32:19.037Z,99600.81
2022-11-26T17:34:47.749Z,99598.25
2022-11-26T17:37:18.314Z,99598.13
2022-11-26T17:39:46.267Z,99603.31
2022-11-26T17:42:13.967Z,99603.59
2022-11-26T17:44:43.001Z,99600.97
2022-11-26T17:47:17.932Z,99605.75
2022-11-26T17:49:46.722Z,99602.50
2022-11-26T17:52:14.561Z,99604.81
2022-11-26T17:54:42.685Z,99604.81
2022-11-26T17:57:10.658Z,99616.69
2022-11-26T17:59:38.808Z,99618.91
2022-11-26T18:02:08.514Z,99617.78
2022-11-26T18:04:36.905Z,99616.16
2022-11-26T18:07:08.278Z,99609.31
2022-11-26T18:09:36.345Z,99615.91
2022-11-26T18:12:05.956Z,99610.13
2022-11-26T18:14:35.520Z,99614.59
2022-11-26T18:17:04.332Z,99615.69
2022-11-26T18:19:33.558Z,99617.56
2022-11-26T18:22:01.267Z,99617.84
2022-11-26T18:24:29.446Z,99614.53
2022-11-26T18:26:57.146Z,99619.97
2022-11-26T18:29:25.249Z,99621.38
2022-11-26T18:31:53.181Z,99626.53
2022-11-26T18:34:21.157Z,99619.97
2022-11-26T18:36:53.721Z,99620.53
2022-11-26T18:39:22.559Z,99621.91
2022-11-26T18:41:50.251Z,99622.72
2022-11-26T18:44:18.053Z,99619.47
2022-11-26T18:46:45.858Z,99623.75
2022-11-26T18:49:13.578Z,99620.53
2022-11-26T18:51:41.866Z,99619.47
2022-11-26T18:54:10.936Z,99610.34
2022-11-26T18:56:38.599Z,99603.84
2022-11-26T18:59:06.297Z,99609.56
2022-11-26T19:01:34.076Z,99601.97
2022-11-26T19:04:01.801Z,99599.81
2022-11-26T19:06:31.624Z,99592.75
2022-11-26T19:09:01.359Z,99590.31
2022-11-26T19:11:30.389Z,99591.47
2022-11-26T19:13:59.080Z,99583.63
2022-11-26T19:16:28.622Z,99586.63
2022-11-26T19:18:56.381Z,99591.56
2022-11-26T19:21:26.482Z,99587.56
2022-11-26T19:23:55.431Z,99587.84
2022-11-26T19:26:23.736Z,99602.22
2022-11-26T19:28:53.275Z,99587.84
2022-11-26T19:31:23.052Z,99588.41
2022-11-26T19:33:54.884Z,99594.94
2022-11-26T19:36:23.250Z,99601.50
2022-11-26T19:38:55.792Z,99599.88
2022-11-26T19:41:25.743Z,99603.66
2022-11-26T19:43:55.743Z,99603.66
2022-11-26T19:46:25.543Z,99594.97
2022-11-26T19:48:55.465Z,99599.13
2022-11-26T19:51:25.070Z,99589.97
2022-11-26T19:53:54.677Z,99590.81
2022-11-26T19:56:24.578Z,99585.09
2022-11-26T19:58:53.768Z,99589.25
2022-11-26T20:01:23.416Z,99580.53
2022-11-26T20:03:51.436Z,99583.34
2022-11-26T20:06:21.315Z,99579.53
2022-11-26T20:08:49.921Z,99573.84
2022-11-26T20:11:19.111Z,99567.66
2022-11-26T20:13:49.119Z,99577.34
2022-11-26T20:16:19.184Z,99572.50
2022-11-26T20:18:49.385Z,99576.31
2022-11-26T20:21:19.702Z,99572.28
2022-11-26T20:23:47.810Z,99574.69
2022-11-26T20:26:18.246Z,99577.38
2022-11-26T20:28:46.866Z,99576.31
2022-11-26T20:31:20.519Z,99575.50
2022-11-26T20:33:52.982Z,99577.97
2022-11-26T20:36:23.098Z,99583.91
2022-11-26T20:38:53.604Z,99574.19
2022-11-26T20:41:21.790Z,99576.38
2022-11-26T20:43:54.962Z,99569.88
2022-11-26T20:46:26.592Z,99571.03
2022-11-26T20:48:56.264Z,99572.66
2022-11-26T20:51:24.000Z,99574.28
2022-11-26T20:53:52.879Z,99564.53
2022-11-26T20:56:22.570Z,99559.13
2022-11-26T20:58:51.304Z,99559.13
2022-11-26T21:01:21.499Z,99553.69
2022-11-26T21:03:49.444Z,99561.03
2022-11-26T21:06:23.341Z,99562.94
2022-11-26T21:08:55.115Z,99552.44
2022-11-26T21:11:22.805Z,99559.75
2022-11-26T21:13:50.601Z,99561.09
2022-11-26T21:16:19.188Z,99562.50
2022-11-26T21:18:47.145Z,99559.28
2022-11-26T21:21:17.227Z,99557.66
2022-11-26T21:23:46.582Z,99552.81
2022-11-26T21:26:17.804Z,99560.41
2022-11-26T21:28:45.713Z,99548.50
2022-11-26T21:31:17.075Z,99553.41
2022-11-26T21:33:46.217Z,99562.59
2022-11-26T21:36:15.542Z,99557.72
2022-11-26T21:38:44.011Z,99549.34
2022-11-26T21:41:13.744Z,99546.66
2022-11-26T21:43:41.638Z,99546.94
2022-11-26T21:46:11.430Z,99554.53
2022-11-26T21:48:39.233Z,99555.06
2022-11-26T21:51:08.237Z,99557.75
2022-11-26T21:53:36.525Z,99556.13
2022-11-26T21:56:08.234Z,99564.81
2022-11-26T21:58:37.757Z,99561.03
2022-11-26T22:01:12.584Z,99557.78
2022-11-26T22:03:44.002Z,99559.41
2022-11-26T22:06:12.566Z,99569.13
2022-11-26T22:08:41.194Z,99572.38
2022-11-26T22:11:10.691Z,99570.22
2022-11-26T22:13:40.264Z,99569.66
2022-11-26T22:16:09.474Z,99578.88
2022-11-26T22:18:38.014Z,99580.50
2022-11-26T22:21:07.828Z,99566.97
2022-11-26T22:23:36.516Z,99572.38
2022-11-26T22:26:04.272Z,99577.78
2022-11-26T22:28:32.019Z,99572.34
2022-11-26T22:31:08.336Z,99590.75
2022-11-26T22:33:36.052Z,99585.34
2022-11-26T22:36:03.931Z,99586.41
2022-11-26T22:38:32.363Z,99577.75
2022-11-26T22:41:03.566Z,99578.31
2022-11-26T22:43:32.022Z,99569.13
2022-11-26T22:46:04.173Z,99573.47
2022-11-26T22:48:32.149Z,99566.94
2022-11-26T22:50:59.792Z,99575.84
2022-11-26T22:53:27.845Z,99571.28
2022-11-26T22:55:58.702Z,99578.56
2022-11-26T22:58:28.026Z,99577.75
2022-11-26T23:00:59.825Z,99582.59
2022-11-26T23:03:32.817Z,99583.13
2022-11-26T23:06:05.015Z,99573.13
2022-11-26T23:08:33.416Z,99566.91
2022-11-26T23:11:06.280Z,99571.22
2022-11-26T23:13:34.253Z,99577.16
2022-11-26T23:16:01.985Z,99579.31
2022-11-26T23:18:31.101Z,99583.66
2022-11-26T23:21:06.763Z,99576.59
2022-11-26T23:23:34.666Z,99587.41
2022-11-26T23:26:03.534Z,99582.78
2022-11-26T23:28:31.762Z,99577.63
2022-11-26T23:31:01.588Z,99589.47
2022-11-26T23:33:31.028Z,99578.16
2022-11-26T23:35:59.280Z,99581.97
2022-11-26T23:38:27.243Z,99578.16
2022-11-26T23:40:55.806Z,99577.31
2022-11-26T23:43:24.320Z,99568.38
2022-11-26T23:45:52.421Z,99572.69
2022-11-26T23:48:20.115Z,99574.81
2022-11-26T23:50:49.302Z,99569.38
2022-11-26T23:53:17.245Z,99577.19
2022-11-26T23:55:45.381Z,99568.00
2022-11-26T23:58:13.277Z,99558.00
